sensor_id;sensor_type;location;lat;lon;timestamp;P1;durP1;ratioP1;P2;durP2;ratioP2
25263;SDS011;13211;51.796;5.808;2023-05-07T00:06:24;7.10;;;4.10;;
25263;SDS011;13211;51.796;5.808;2023-05-07T00:08:55;6.53;;;4.17;;
25263;SDS011;13211;51.796;5.808;2023-05-07T00:11:26;6.13;;;3.67;;
25263;SDS011;13211;51.796;5.808;2023-05-07T00:13:54;6.78;;;4.05;;
25263;SDS011;13211;51.796;5.808;2023-05-07T00:16:21;6.38;;;3.90;;
25263;SDS011;13211;51.796;5.808;2023-05-07T00:18:49;7.97;;;4.05;;
25263;SDS011;13211;51.796;5.808;2023-05-07T00:21:17;13.60;;;4.35;;
25263;SDS011;13211;51.796;5.808;2023-05-07T00:23:47;5.95;;;4.15;;
25263;SDS011;13211;51.796;5.808;2023-05-07T00:26:15;7.72;;;4.20;;
25263;SDS011;13211;51.796;5.808;2023-05-07T00:28:48;5.40;;;4.03;;
25263;SDS011;13211;51.796;5.808;2023-05-07T00:31:17;7.65;;;3.88;;
25263;SDS011;13211;51.796;5.808;2023-05-07T00:36:35;6.78;;;4.05;;
25263;SDS011;13211;51.796;5.808;2023-05-07T00:39:04;7.82;;;4.40;;
25263;SDS011;13211;51.796;5.808;2023-05-07T00:41:34;9.55;;;4.90;;
25263;SDS011;13211;51.796;5.808;2023-05-07T00:44:03;8.23;;;5.15;;
25263;SDS011;13211;51.796;5.808;2023-05-07T00:46:31;6.75;;;5.00;;
25263;SDS011;13211;51.796;5.808;2023-05-07T00:49:01;9.60;;;4.53;;
25263;SDS011;13211;51.796;5.808;2023-05-07T00:51:29;7.18;;;4.35;;
25263;SDS011;13211;51.796;5.808;2023-05-07T00:53:57;8.82;;;3.85;;
25263;SDS011;13211;51.796;5.808;2023-05-07T00:56:25;6.13;;;4.13;;
25263;SDS011;13211;51.796;5.808;2023-05-07T00:58:54;4.10;;;3.50;;
25263;SDS011;13211;51.796;5.808;2023-05-07T01:01:22;13.02;;;4.13;;
25263;SDS011;13211;51.796;5.808;2023-05-07T01:03:51;5.78;;;3.22;;
25263;SDS011;13211;51.796;5.808;2023-05-07T01:06:20;8.13;;;3.10;;
25263;SDS011;13211;51.796;5.808;2023-05-07T01:08:49;3.03;;;2.72;;
25263;SDS011;13211;51.796;5.808;2023-05-07T01:13:47;5.30;;;2.67;;
25263;SDS011;13211;51.796;5.808;2023-05-07T01:16:19;4.30;;;3.30;;
25263;SDS011;13211;51.796;5.808;2023-05-07T01:18:50;4.00;;;2.97;;
25263;SDS011;13211;51.796;5.808;2023-05-07T01:21:19;7.22;;;4.30;;
25263;SDS011;13211;51.796;5.808;2023-05-07T01:23:56;8.55;;;4.78;;
25263;SDS011;13211;51.796;5.808;2023-05-07T01:26:24;5.75;;;4.57;;
25263;SDS011;13211;51.796;5.808;2023-05-07T01:28:52;11.27;;;5.18;;
25263;SDS011;13211;51.796;5.808;2023-05-07T01:31:21;8.70;;;5.55;;
25263;SDS011;13211;51.796;5.808;2023-05-07T01:33:50;13.05;;;6.95;;
25263;SDS011;13211;51.796;5.808;2023-05-07T01:36:19;11.98;;;6.75;;
25263;SDS011;13211;51.796;5.808;2023-05-07T01:38:50;6.00;;;4.03;;
25263;SDS011;13211;51.796;5.808;2023-05-07T01:41:27;4.93;;;2.78;;
25263;SDS011;13211;51.796;5.808;2023-05-07T01:43:56;4.20;;;2.83;;
25263;SDS011;13211;51.796;5.808;2023-05-07T01:46:26;6.03;;;3.60;;
25263;SDS011;13211;51.796;5.808;2023-05-07T01:48:55;6.25;;;3.35;;
25263;SDS011;13211;51.796;5.808;2023-05-07T01:51:24;5.80;;;3.25;;
25263;SDS011;13211;51.796;5.808;2023-05-07T01:53:59;5.50;;;3.70;;
25263;SDS011;13211;51.796;5.808;2023-05-07T01:56:34;5.95;;;4.60;;
25263;SDS011;13211;51.796;5.808;2023-05-07T01:59:02;5.75;;;4.47;;
25263;SDS011;13211;51.796;5.808;2023-05-07T02:01:30;6.82;;;4.72;;
25263;SDS011;13211;51.796;5.808;2023-05-07T02:03:59;5.97;;;4.82;;
25263;SDS011;13211;51.796;5.808;2023-05-07T02:06:28;7.63;;;5.60;;
25263;SDS011;13211;51.796;5.808;2023-05-07T02:09:03;11.00;;;8.40;;
25263;SDS011;13211;51.796;5.808;2023-05-07T02:11:30;13.55;;;9.23;;
25263;SDS011;13211;51.796;5.808;2023-05-07T02:13:58;16.25;;;10.30;;
25263;SDS011;13211;51.796;5.808;2023-05-07T02:16:26;14.93;;;10.60;;
25263;SDS011;13211;51.796;5.808;2023-05-07T02:18:54;15.93;;;10.95;;
25263;SDS011;13211;51.796;5.808;2023-05-07T02:21:22;23.05;;;12.98;;
25263;SDS011;13211;51.796;5.808;2023-05-07T02:23:50;16.45;;;12.63;;
25263;SDS011;13211;51.796;5.808;2023-05-07T02:26:18;18.77;;;12.93;;
25263;SDS011;13211;51.796;5.808;2023-05-07T02:28:46;23.83;;;14.93;;
25263;SDS011;13211;51.796;5.808;2023-05-07T02:31:15;19.88;;;13.82;;
25263;SDS011;13211;51.796;5.808;2023-05-07T02:33:44;19.23;;;14.10;;
25263;SDS011;13211;51.796;5.808;2023-05-07T02:36:14;17.38;;;13.43;;
25263;SDS011;13211;51.796;5.808;2023-05-07T02:38:48;15.73;;;11.27;;
25263;SDS011;13211;51.796;5.808;2023-05-07T02:41:17;14.70;;;11.45;;
25263;SDS011;13211;51.796;5.808;2023-05-07T02:43:45;16.60;;;11.65;;
25263;SDS011;13211;51.796;5.808;2023-05-07T02:46:13;20.63;;;12.73;;
25263;SDS011;13211;51.796;5.808;2023-05-07T02:48:45;21.25;;;13.90;;
25263;SDS011;13211;51.796;5.808;2023-05-07T02:51:17;21.38;;;14.57;;
25263;SDS011;13211;51.796;5.808;2023-05-07T02:53:51;22.45;;;15.10;;
25263;SDS011;13211;51.796;5.808;2023-05-07T02:56:21;21.52;;;15.40;;
25263;SDS011;13211;51.796;5.808;2023-05-07T02:58:49;22.35;;;15.45;;
25263;SDS011;13211;51.796;5.808;2023-05-07T03:01:18;22.38;;;14.82;;
25263;SDS011;13211;51.796;5.808;2023-05-07T03:03:55;19.50;;;14.35;;
25263;SDS011;13211;51.796;5.808;2023-05-07T03:06:23;19.67;;;13.60;;
25263;SDS011;13211;51.796;5.808;2023-05-07T03:08:53;18.77;;;13.75;;
25263;SDS011;13211;51.796;5.808;2023-05-07T03:11:21;18.52;;;13.77;;
25263;SDS011;13211;51.796;5.808;2023-05-07T03:13:49;20.58;;;14.10;;
25263;SDS011;13211;51.796;5.808;2023-05-07T03:16:19;19.45;;;14.65;;
25263;SDS011;13211;51.796;5.808;2023-05-07T03:18:48;20.83;;;14.85;;
25263;SDS011;13211;51.796;5.808;2023-05-07T03:21:17;22.20;;;15.70;;
25263;SDS011;13211;51.796;5.808;2023-05-07T03:23:45;24.33;;;15.55;;
25263;SDS011;13211;51.796;5.808;2023-05-07T03:26:14;22.25;;;15.05;;
25263;SDS011;13211;51.796;5.808;2023-05-07T03:28:45;23.58;;;15.18;;
25263;SDS011;13211;51.796;5.808;2023-05-07T03:31:19;19.88;;;13.57;;
25263;SDS011;13211;51.796;5.808;2023-05-07T03:33:51;21.58;;;14.80;;
25263;SDS011;13211;51.796;5.808;2023-05-07T03:36:19;22.35;;;14.75;;
25263;SDS011;13211;51.796;5.808;2023-05-07T03:38:48;18.33;;;14.10;;
25263;SDS011;13211;51.796;5.808;2023-05-07T03:41:19;19.33;;;13.85;;
25263;SDS011;13211;51.796;5.808;2023-05-07T03:43:47;20.88;;;14.20;;
25263;SDS011;13211;51.796;5.808;2023-05-07T03:46:17;20.38;;;15.30;;
25263;SDS011;13211;51.796;5.808;2023-05-07T03:48:50;22.10;;;15.57;;
25263;SDS011;13211;51.796;5.808;2023-05-07T03:51:19;22.13;;;15.20;;
25263;SDS011;13211;51.796;5.808;2023-05-07T03:53:49;21.67;;;16.23;;
25263;SDS011;13211;51.796;5.808;2023-05-07T03:56:21;27.92;;;17.08;;
25263;SDS011;13211;51.796;5.808;2023-05-07T03:58:53;22.77;;;17.25;;
25263;SDS011;13211;51.796;5.808;2023-05-07T04:01:21;23.27;;;17.20;;
25263;SDS011;13211;51.796;5.808;2023-05-07T04:03:49;24.65;;;17.77;;
25263;SDS011;13211;51.796;5.808;2023-05-07T04:06:19;26.40;;;17.88;;
25263;SDS011;13211;51.796;5.808;2023-05-07T04:08:48;26.35;;;18.50;;
25263;SDS011;13211;51.796;5.808;2023-05-07T04:11:17;22.40;;;17.27;;
25263;SDS011;13211;51.796;5.808;2023-05-07T04:13:47;25.00;;;18.70;;
25263;SDS011;13211;51.796;5.808;2023-05-07T04:16:19;23.15;;;18.50;;
25263;SDS011;13211;51.796;5.808;2023-05-07T04:18:47;27.10;;;18.92;;
25263;SDS011;13211;51.796;5.808;2023-05-07T04:21:18;26.92;;;19.25;;
25263;SDS011;13211;51.796;5.808;2023-05-07T04:23:48;32.67;;;19.30;;
25263;SDS011;13211;51.796;5.808;2023-05-07T04:26:19;26.35;;;18.52;;
25263;SDS011;13211;51.796;5.808;2023-05-07T04:28:47;24.92;;;19.42;;
25263;SDS011;13211;51.796;5.808;2023-05-07T04:31:15;25.10;;;18.95;;
25263;SDS011;13211;51.796;5.808;2023-05-07T04:33:48;28.55;;;20.13;;
25263;SDS011;13211;51.796;5.808;2023-05-07T04:36:17;28.83;;;21.42;;
25263;SDS011;13211;51.796;5.808;2023-05-07T04:38:51;26.50;;;20.50;;
25263;SDS011;13211;51.796;5.808;2023-05-07T04:41:21;26.27;;;20.60;;
25263;SDS011;13211;51.796;5.808;2023-05-07T04:43:49;30.08;;;20.95;;
25263;SDS011;13211;51.796;5.808;2023-05-07T04:46:21;29.13;;;20.05;;
25263;SDS011;13211;51.796;5.808;2023-05-07T04:48:52;28.60;;;20.40;;
25263;SDS011;13211;51.796;5.808;2023-05-07T04:51:20;25.50;;;19.10;;
25263;SDS011;13211;51.796;5.808;2023-05-07T04:53:48;28.65;;;20.65;;
25263;SDS011;13211;51.796;5.808;2023-05-07T04:56:17;27.88;;;20.02;;
25263;SDS011;13211;51.796;5.808;2023-05-07T04:58:48;27.85;;;20.35;;
25263;SDS011;13211;51.796;5.808;2023-05-07T05:01:19;30.02;;;20.25;;
25263;SDS011;13211;51.796;5.808;2023-05-07T05:03:48;30.60;;;20.02;;
25263;SDS011;13211;51.796;5.808;2023-05-07T05:06:17;26.80;;;20.40;;
25263;SDS011;13211;51.796;5.808;2023-05-07T05:08:45;29.38;;;20.30;;
25263;SDS011;13211;51.796;5.808;2023-05-07T05:11:14;28.77;;;20.73;;
25263;SDS011;13211;51.796;5.808;2023-05-07T05:13:43;27.58;;;18.95;;
25263;SDS011;13211;51.796;5.808;2023-05-07T05:16:18;25.90;;;19.77;;
25263;SDS011;13211;51.796;5.808;2023-05-07T05:18:47;26.98;;;19.67;;
25263;SDS011;13211;51.796;5.808;2023-05-07T05:21:17;29.17;;;21.45;;
25263;SDS011;13211;51.796;5.808;2023-05-07T05:23:47;29.98;;;22.55;;
25263;SDS011;13211;51.796;5.808;2023-05-07T05:26:19;31.05;;;22.13;;
25263;SDS011;13211;51.796;5.808;2023-05-07T05:28:48;29.17;;;20.77;;
25263;SDS011;13211;51.796;5.808;2023-05-07T05:31:19;28.95;;;20.20;;
25263;SDS011;13211;51.796;5.808;2023-05-07T05:33:48;29.40;;;21.40;;
25263;SDS011;13211;51.796;5.808;2023-05-07T05:36:18;28.35;;;20.25;;
25263;SDS011;13211;51.796;5.808;2023-05-07T05:38:48;29.70;;;20.63;;
25263;SDS011;13211;51.796;5.808;2023-05-07T05:41:17;31.13;;;21.23;;
25263;SDS011;13211;51.796;5.808;2023-05-07T05:43:45;33.45;;;20.85;;
25263;SDS011;13211;51.796;5.808;2023-05-07T05:46:21;28.80;;;21.23;;
25263;SDS011;13211;51.796;5.808;2023-05-07T05:48:50;31.67;;;20.92;;
25263;SDS011;13211;51.796;5.808;2023-05-07T05:51:18;28.67;;;19.67;;
25263;SDS011;13211;51.796;5.808;2023-05-07T05:53:46;27.38;;;20.17;;
25263;SDS011;13211;51.796;5.808;2023-05-07T05:56:17;29.35;;;20.50;;
25263;SDS011;13211;51.796;5.808;2023-05-07T05:58:45;30.77;;;20.33;;
25263;SDS011;13211;51.796;5.808;2023-05-07T06:01:18;28.77;;;19.77;;
25263;SDS011;13211;51.796;5.808;2023-05-07T06:03:51;26.10;;;19.27;;
25263;SDS011;13211;51.796;5.808;2023-05-07T06:06:19;26.13;;;18.45;;
25263;SDS011;13211;51.796;5.808;2023-05-07T06:08:47;31.08;;;19.63;;
25263;SDS011;13211;51.796;5.808;2023-05-07T06:11:21;26.10;;;17.95;;
25263;SDS011;13211;51.796;5.808;2023-05-07T06:13:49;28.10;;;18.70;;
25263;SDS011;13211;51.796;5.808;2023-05-07T06:16:18;23.92;;;18.25;;
25263;SDS011;13211;51.796;5.808;2023-05-07T06:18:45;26.17;;;16.85;;
25263;SDS011;13211;51.796;5.808;2023-05-07T06:21:17;23.33;;;17.88;;
25263;SDS011;13211;51.796;5.808;2023-05-07T06:23:48;26.17;;;18.48;;
25263;SDS011;13211;51.796;5.808;2023-05-07T06:26:19;26.27;;;18.77;;
25263;SDS011;13211;51.796;5.808;2023-05-07T06:28:47;25.60;;;18.20;;
25263;SDS011;13211;51.796;5.808;2023-05-07T06:31:18;24.52;;;17.45;;
25263;SDS011;13211;51.796;5.808;2023-05-07T06:33:58;24.75;;;17.27;;
25263;SDS011;13211;51.796;5.808;2023-05-07T06:36:33;22.63;;;17.33;;
25263;SDS011;13211;51.796;5.808;2023-05-07T06:39:08;23.15;;;17.48;;
25263;SDS011;13211;51.796;5.808;2023-05-07T06:41:36;23.13;;;17.20;;
25263;SDS011;13211;51.796;5.808;2023-05-07T06:44:14;21.95;;;16.63;;
25263;SDS011;13211;51.796;5.808;2023-05-07T06:46:53;21.33;;;17.00;;
25263;SDS011;13211;51.796;5.808;2023-05-07T06:49:21;23.33;;;16.98;;
25263;SDS011;13211;51.796;5.808;2023-05-07T06:51:49;26.08;;;17.13;;
25263;SDS011;13211;51.796;5.808;2023-05-07T06:54:17;29.35;;;17.05;;
25263;SDS011;13211;51.796;5.808;2023-05-07T06:56:47;29.05;;;17.65;;
25263;SDS011;13211;51.796;5.808;2023-05-07T06:59:18;22.75;;;16.25;;
25263;SDS011;13211;51.796;5.808;2023-05-07T07:01:47;23.92;;;17.02;;
25263;SDS011;13211;51.796;5.808;2023-05-07T07:04:17;23.15;;;17.58;;
25263;SDS011;13211;51.796;5.808;2023-05-07T07:06:54;23.60;;;16.30;;
25263;SDS011;13211;51.796;5.808;2023-05-07T07:09:24;25.83;;;16.55;;
25263;SDS011;13211;51.796;5.808;2023-05-07T07:11:53;21.50;;;16.83;;
25263;SDS011;13211;51.796;5.808;2023-05-07T07:14:22;25.23;;;17.38;;
25263;SDS011;13211;51.796;5.808;2023-05-07T07:16:52;24.08;;;16.67;;
25263;SDS011;13211;51.796;5.808;2023-05-07T07:19:22;22.05;;;16.52;;
25263;SDS011;13211;51.796;5.808;2023-05-07T07:21:52;25.73;;;17.60;;
25263;SDS011;13211;51.796;5.808;2023-05-07T07:24:21;20.55;;;15.77;;
25263;SDS011;13211;51.796;5.808;2023-05-07T07:26:53;21.38;;;15.63;;
25263;SDS011;13211;51.796;5.808;2023-05-07T07:29:24;22.63;;;16.27;;
25263;SDS011;13211;51.796;5.808;2023-05-07T07:31:54;24.73;;;17.40;;
25263;SDS011;13211;51.796;5.808;2023-05-07T07:34:22;22.67;;;16.38;;
25263;SDS011;13211;51.796;5.808;2023-05-07T07:36:50;21.95;;;15.95;;
25263;SDS011;13211;51.796;5.808;2023-05-07T07:39:19;24.23;;;16.63;;
25263;SDS011;13211;51.796;5.808;2023-05-07T07:41:51;22.42;;;16.55;;
25263;SDS011;13211;51.796;5.808;2023-05-07T07:44:20;24.67;;;16.88;;
25263;SDS011;13211;51.796;5.808;2023-05-07T07:46:55;26.65;;;17.08;;
25263;SDS011;13211;51.796;5.808;2023-05-07T07:49:25;23.73;;;16.30;;
25263;SDS011;13211;51.796;5.808;2023-05-07T07:51:54;22.80;;;16.70;;
25263;SDS011;13211;51.796;5.808;2023-05-07T07:54:26;21.70;;;16.35;;
25263;SDS011;13211;51.796;5.808;2023-05-07T07:56:56;21.38;;;16.23;;
25263;SDS011;13211;51.796;5.808;2023-05-07T07:59:25;25.38;;;17.17;;
25263;SDS011;13211;51.796;5.808;2023-05-07T08:01:53;22.02;;;16.15;;
25263;SDS011;13211;51.796;5.808;2023-05-07T08:04:26;21.63;;;16.48;;
25263;SDS011;13211;51.796;5.808;2023-05-07T08:06:57;23.65;;;16.85;;
25263;SDS011;13211;51.796;5.808;2023-05-07T08:09:26;24.73;;;16.67;;
25263;SDS011;13211;51.796;5.808;2023-05-07T08:14:24;25.92;;;16.60;;
25263;SDS011;13211;51.796;5.808;2023-05-07T08:16:52;23.25;;;16.83;;
25263;SDS011;13211;51.796;5.808;2023-05-07T08:19:20;20.95;;;15.80;;
25263;SDS011;13211;51.796;5.808;2023-05-07T08:21:49;27.98;;;16.17;;
25263;SDS011;13211;51.796;5.808;2023-05-07T08:24:19;17.27;;;14.38;;
25263;SDS011;13211;51.796;5.808;2023-05-07T08:26:48;23.73;;;15.40;;
25263;SDS011;13211;51.796;5.808;2023-05-07T08:29:18;20.05;;;14.85;;
25263;SDS011;13211;51.796;5.808;2023-05-07T08:31:49;17.63;;;14.60;;
25263;SDS011;13211;51.796;5.808;2023-05-07T08:34:18;19.17;;;14.90;;
25263;SDS011;13211;51.796;5.808;2023-05-07T08:36:48;20.92;;;14.20;;
25263;SDS011;13211;51.796;5.808;2023-05-07T08:39:20;17.58;;;13.52;;
25263;SDS011;13211;51.796;5.808;2023-05-07T08:44:19;17.27;;;12.38;;
25263;SDS011;13211;51.796;5.808;2023-05-07T08:46:49;16.63;;;13.80;;
25263;SDS011;13211;51.796;5.808;2023-05-07T08:49:23;18.25;;;12.73;;
25263;SDS011;13211;51.796;5.808;2023-05-07T08:51:52;14.98;;;11.50;;
25263;SDS011;13211;51.796;5.808;2023-05-07T08:54:20;16.63;;;10.82;;
25263;SDS011;13211;51.796;5.808;2023-05-07T08:56:48;15.75;;;10.80;;
25263;SDS011;13211;51.796;5.808;2023-05-07T08:59:19;16.15;;;10.27;;
25263;SDS011;13211;51.796;5.808;2023-05-07T09:01:50;13.82;;;9.25;;
25263;SDS011;13211;51.796;5.808;2023-05-07T09:04:18;14.13;;;8.98;;
25263;SDS011;13211;51.796;5.808;2023-05-07T09:06:48;12.15;;;7.75;;
25263;SDS011;13211;51.796;5.808;2023-05-07T09:09:21;13.02;;;9.10;;
25263;SDS011;13211;51.796;5.808;2023-05-07T09:11:56;13.10;;;9.00;;
25263;SDS011;13211;51.796;5.808;2023-05-07T09:14:30;9.98;;;8.15;;
25263;SDS011;13211;51.796;5.808;2023-05-07T09:17:09;11.80;;;8.45;;
25263;SDS011;13211;51.796;5.808;2023-05-07T09:20:04;11.18;;;7.78;;
25263;SDS011;13211;51.796;5.808;2023-05-07T09:22:38;10.40;;;7.40;;
25263;SDS011;13211;51.796;5.808;2023-05-07T09:25:10;10.07;;;7.55;;
25263;SDS011;13211;51.796;5.808;2023-05-07T09:27:40;9.82;;;7.60;;
25263;SDS011;13211;51.796;5.808;2023-05-07T09:30:10;9.98;;;7.00;;
25263;SDS011;13211;51.796;5.808;2023-05-07T09:32:38;13.00;;;7.63;;
25263;SDS011;13211;51.796;5.808;2023-05-07T09:35:14;15.10;;;7.85;;
25263;SDS011;13211;51.796;5.808;2023-05-07T09:37:50;8.85;;;6.70;;
25263;SDS011;13211;51.796;5.808;2023-05-07T09:40:22;9.90;;;7.00;;
25263;SDS011;13211;51.796;5.808;2023-05-07T09:42:52;11.02;;;6.43;;
25263;SDS011;13211;51.796;5.808;2023-05-07T09:45:25;11.18;;;4.95;;
25263;SDS011;13211;51.796;5.808;2023-05-07T09:47:57;8.13;;;5.57;;
25263;SDS011;13211;51.796;5.808;2023-05-07T09:50:28;11.30;;;6.18;;
25263;SDS011;13211;51.796;5.808;2023-05-07T09:52:57;10.18;;;5.70;;
25263;SDS011;13211;51.796;5.808;2023-05-07T09:55:25;9.00;;;5.22;;
25263;SDS011;13211;51.796;5.808;2023-05-07T09:57:55;12.45;;;6.30;;
25263;SDS011;13211;51.796;5.808;2023-05-07T10:00:25;10.18;;;5.13;;
25263;SDS011;13211;51.796;5.808;2023-05-07T10:03:04;8.43;;;6.33;;
25263;SDS011;13211;51.796;5.808;2023-05-07T10:05:43;7.50;;;5.20;;
25263;SDS011;13211;51.796;5.808;2023-05-07T10:08:14;9.95;;;5.95;;
25263;SDS011;13211;51.796;5.808;2023-05-07T10:10:46;9.23;;;5.50;;
25263;SDS011;13211;51.796;5.808;2023-05-07T10:13:19;6.78;;;4.93;;
25263;SDS011;13211;51.796;5.808;2023-05-07T10:15:55;8.52;;;5.30;;
25263;SDS011;13211;51.796;5.808;2023-05-07T10:18:26;11.00;;;5.90;;
25263;SDS011;13211;51.796;5.808;2023-05-07T10:21:07;6.32;;;5.38;;
25263;SDS011;13211;51.796;5.808;2023-05-07T10:23:36;8.63;;;4.72;;
25263;SDS011;13211;51.796;5.808;2023-05-07T10:26:05;7.85;;;4.35;;
25263;SDS011;13211;51.796;5.808;2023-05-07T10:28:38;7.50;;;4.20;;
25263;SDS011;13211;51.796;5.808;2023-05-07T10:33:46;5.07;;;3.67;;
25263;SDS011;13211;51.796;5.808;2023-05-07T10:36:17;8.05;;;4.50;;
25263;SDS011;13211;51.796;5.808;2023-05-07T10:38:47;8.13;;;4.53;;
25263;SDS011;13211;51.796;5.808;2023-05-07T10:41:18;12.52;;;4.60;;
25263;SDS011;13211;51.796;5.808;2023-05-07T10:43:49;5.72;;;3.65;;
25263;SDS011;13211;51.796;5.808;2023-05-07T10:46:23;6.53;;;3.03;;
25263;SDS011;13211;51.796;5.808;2023-05-07T10:51:53;6.82;;;4.40;;
25263;SDS011;13211;51.796;5.808;2023-05-07T10:54:38;10.80;;;3.90;;
25263;SDS011;13211;51.796;5.808;2023-05-07T11:00:01;6.32;;;4.13;;
25263;SDS011;13211;51.796;5.808;2023-05-07T11:03:06;7.72;;;4.20;;
25263;SDS011;13211;51.796;5.808;2023-05-07T11:05:39;7.25;;;3.63;;
25263;SDS011;13211;51.796;5.808;2023-05-07T11:08:25;5.15;;;3.20;;
25263;SDS011;13211;51.796;5.808;2023-05-07T11:11:04;8.15;;;2.95;;
25263;SDS011;13211;51.796;5.808;2023-05-07T11:13:44;7.82;;;3.80;;
25263;SDS011;13211;51.796;5.808;2023-05-07T11:16:34;5.43;;;3.10;;
25263;SDS011;13211;51.796;5.808;2023-05-07T11:19:13;9.38;;;3.88;;
25263;SDS011;13211;51.796;5.808;2023-05-07T11:21:47;6.45;;;4.20;;
25263;SDS011;13211;51.796;5.808;2023-05-07T11:24:40;10.45;;;4.50;;
25263;SDS011;13211;51.796;5.808;2023-05-07T11:27:14;5.25;;;3.95;;
25263;SDS011;13211;51.796;5.808;2023-05-07T11:29:46;6.75;;;3.90;;
25263;SDS011;13211;51.796;5.808;2023-05-07T11:32:16;6.75;;;4.35;;
25263;SDS011;13211;51.796;5.808;2023-05-07T11:34:52;8.30;;;4.88;;
25263;SDS011;13211;51.796;5.808;2023-05-07T11:37:24;10.75;;;4.30;;
25263;SDS011;13211;51.796;5.808;2023-05-07T11:40:10;6.80;;;3.72;;
25263;SDS011;13211;51.796;5.808;2023-05-07T11:42:41;7.78;;;4.20;;
25263;SDS011;13211;51.796;5.808;2023-05-07T11:45:10;7.45;;;3.92;;
25263;SDS011;13211;51.796;5.808;2023-05-07T11:47:38;8.18;;;3.90;;
25263;SDS011;13211;51.796;5.808;2023-05-07T11:50:10;8.20;;;4.55;;
25263;SDS011;13211;51.796;5.808;2023-05-07T11:52:49;8.30;;;4.90;;
25263;SDS011;13211;51.796;5.808;2023-05-07T11:55:18;6.03;;;3.78;;
25263;SDS011;13211;51.796;5.808;2023-05-07T11:57:47;6.15;;;4.32;;
25263;SDS011;13211;51.796;5.808;2023-05-07T12:00:15;14.52;;;5.00;;
25263;SDS011;13211;51.796;5.808;2023-05-07T12:02:45;6.57;;;4.82;;
25263;SDS011;13211;51.796;5.808;2023-05-07T12:05:14;13.45;;;5.03;;
25263;SDS011;13211;51.796;5.808;2023-05-07T12:07:42;10.70;;;4.15;;
25263;SDS011;13211;51.796;5.808;2023-05-07T12:10:12;7.20;;;4.40;;
25263;SDS011;13211;51.796;5.808;2023-05-07T12:12:41;12.02;;;4.30;;
25263;SDS011;13211;51.796;5.808;2023-05-07T12:15:09;7.97;;;3.92;;
25263;SDS011;13211;51.796;5.808;2023-05-07T12:17:39;7.93;;;3.50;;
25263;SDS011;13211;51.796;5.808;2023-05-07T12:20:07;5.95;;;3.63;;
25263;SDS011;13211;51.796;5.808;2023-05-07T12:22:36;7.35;;;4.38;;
25263;SDS011;13211;51.796;5.808;2023-05-07T12:25:04;5.38;;;3.80;;
25263;SDS011;13211;51.796;5.808;2023-05-07T12:27:36;7.65;;;4.32;;
25263;SDS011;13211;51.796;5.808;2023-05-07T12:30:08;9.63;;;3.95;;
25263;SDS011;13211;51.796;5.808;2023-05-07T12:32:37;7.07;;;3.40;;
25263;SDS011;13211;51.796;5.808;2023-05-07T12:35:05;7.72;;;3.78;;
25263;SDS011;13211;51.796;5.808;2023-05-07T12:37:38;6.68;;;3.83;;
25263;SDS011;13211;51.796;5.808;2023-05-07T12:40:07;5.78;;;2.97;;
25263;SDS011;13211;51.796;5.808;2023-05-07T12:42:35;5.55;;;3.40;;
25263;SDS011;13211;51.796;5.808;2023-05-07T12:45:13;9.32;;;3.65;;
25263;SDS011;13211;51.796;5.808;2023-05-07T12:47:45;6.07;;;3.63;;
25263;SDS011;13211;51.796;5.808;2023-05-07T12:50:15;8.50;;;3.88;;
25263;SDS011;13211;51.796;5.808;2023-05-07T12:52:48;8.05;;;3.50;;
25263;SDS011;13211;51.796;5.808;2023-05-07T12:55:19;7.03;;;3.35;;
25263;SDS011;13211;51.796;5.808;2023-05-07T12:57:48;7.43;;;3.10;;
25263;SDS011;13211;51.796;5.808;2023-05-07T13:02:45;8.88;;;2.90;;
25263;SDS011;13211;51.796;5.808;2023-05-07T13:05:17;6.70;;;2.80;;
25263;SDS011;13211;51.796;5.808;2023-05-07T13:07:57;7.38;;;2.78;;
25263;SDS011;13211;51.796;5.808;2023-05-07T13:10:26;6.53;;;3.28;;
25263;SDS011;13211;51.796;5.808;2023-05-07T13:12:54;10.85;;;3.78;;
25263;SDS011;13211;51.796;5.808;2023-05-07T13:15:22;4.57;;;3.00;;
25263;SDS011;13211;51.796;5.808;2023-05-07T13:17:53;6.35;;;2.75;;
25263;SDS011;13211;51.796;5.808;2023-05-07T13:20:22;5.47;;;2.78;;
25263;SDS011;13211;51.796;5.808;2023-05-07T13:22:49;5.78;;;2.88;;
25263;SDS011;13211;51.796;5.808;2023-05-07T13:25:17;5.78;;;2.55;;
25263;SDS011;13211;51.796;5.808;2023-05-07T13:27:46;6.72;;;2.83;;
25263;SDS011;13211;51.796;5.808;2023-05-07T13:30:39;5.57;;;2.75;;
25263;SDS011;13211;51.796;5.808;2023-05-07T13:33:07;6.55;;;2.70;;
25263;SDS011;13211;51.796;5.808;2023-05-07T13:35:35;5.93;;;2.67;;
25263;SDS011;13211;51.796;5.808;2023-05-07T13:38:05;7.35;;;2.97;;
25263;SDS011;13211;51.796;5.808;2023-05-07T13:40:35;8.60;;;3.13;;
25263;SDS011;13211;51.796;5.808;2023-05-07T13:43:05;7.95;;;2.70;;
25263;SDS011;13211;51.796;5.808;2023-05-07T13:45:35;4.80;;;3.15;;
25263;SDS011;13211;51.796;5.808;2023-05-07T13:48:03;10.18;;;3.13;;
25263;SDS011;13211;51.796;5.808;2023-05-07T13:50:31;6.88;;;3.75;;
25263;SDS011;13211;51.796;5.808;2023-05-07T13:52:59;5.25;;;3.05;;
25263;SDS011;13211;51.796;5.808;2023-05-07T13:55:28;6.93;;;3.20;;
25263;SDS011;13211;51.796;5.808;2023-05-07T13:57:58;9.85;;;3.58;;
25263;SDS011;13211;51.796;5.808;2023-05-07T14:02:57;5.75;;;3.13;;
25263;SDS011;13211;51.796;5.808;2023-05-07T14:05:25;7.85;;;3.25;;
25263;SDS011;13211;51.796;5.808;2023-05-07T14:07:56;7.82;;;2.75;;
25263;SDS011;13211;51.796;5.808;2023-05-07T14:10:24;6.93;;;2.88;;
25263;SDS011;13211;51.796;5.808;2023-05-07T14:12:52;4.78;;;2.60;;
25263;SDS011;13211;51.796;5.808;2023-05-07T14:15:21;6.68;;;3.63;;
25263;SDS011;13211;51.796;5.808;2023-05-07T14:17:49;6.72;;;3.38;;
25263;SDS011;13211;51.796;5.808;2023-05-07T14:20:17;5.47;;;2.95;;
25263;SDS011;13211;51.796;5.808;2023-05-07T14:22:47;3.53;;;1.58;;
25263;SDS011;13211;51.796;5.808;2023-05-07T14:25:15;2.33;;;0.80;;
25263;SDS011;13211;51.796;5.808;2023-05-07T14:27:48;4.53;;;0.80;;
25263;SDS011;13211;51.796;5.808;2023-05-07T14:30:18;2.85;;;0.60;;
25263;SDS011;13211;51.796;5.808;2023-05-07T14:32:47;2.20;;;0.63;;
25263;SDS011;13211;51.796;5.808;2023-05-07T14:35:15;4.32;;;1.00;;
25263;SDS011;13211;51.796;5.808;2023-05-07T14:37:44;5.40;;;1.10;;
25263;SDS011;13211;51.796;5.808;2023-05-07T14:40:12;7.55;;;1.55;;
25263;SDS011;13211;51.796;5.808;2023-05-07T14:42:42;10.87;;;1.23;;
25263;SDS011;13211;51.796;5.808;2023-05-07T14:45:10;3.67;;;1.40;;
25263;SDS011;13211;51.796;5.808;2023-05-07T14:47:38;5.07;;;1.50;;
25263;SDS011;13211;51.796;5.808;2023-05-07T14:50:06;4.97;;;1.60;;
25263;SDS011;13211;51.796;5.808;2023-05-07T14:52:34;2.08;;;1.80;;
25263;SDS011;13211;51.796;5.808;2023-05-07T14:55:02;5.50;;;1.90;;
25263;SDS011;13211;51.796;5.808;2023-05-07T14:57:29;4.30;;;1.70;;
25263;SDS011;13211;51.796;5.808;2023-05-07T15:00:04;4.57;;;1.83;;
25263;SDS011;13211;51.796;5.808;2023-05-07T15:02:33;5.20;;;2.20;;
25263;SDS011;13211;51.796;5.808;2023-05-07T15:05:02;3.90;;;2.33;;
25263;SDS011;13211;51.796;5.808;2023-05-07T15:07:30;6.45;;;2.42;;
25263;SDS011;13211;51.796;5.808;2023-05-07T15:10:06;9.77;;;2.47;;
25263;SDS011;13211;51.796;5.808;2023-05-07T15:12:34;4.60;;;2.42;;
25263;SDS011;13211;51.796;5.808;2023-05-07T15:15:07;5.53;;;2.47;;
25263;SDS011;13211;51.796;5.808;2023-05-07T15:17:36;3.38;;;2.13;;
25263;SDS011;13211;51.796;5.808;2023-05-07T15:20:05;4.72;;;2.40;;
25263;SDS011;13211;51.796;5.808;2023-05-07T15:22:33;3.58;;;2.65;;